Time;durP1;ratioP1;P1;durP2;ratioP2;P2;SDS_P1;SDS_P2;PMS_P1;PMS_P2;Temp;Humidity;BMP_temperature;BMP_pressure;BME280_temperature;BME280_humidity;BME280_pressure;Samples;Min_cycle;Max_cycle;Signal;HPM_P1;HPM_P2
2023/04/19 00:01:27;;;;;;;;;;;;;;;;;;4358850;32;19977;-83
2023/04/19 00:03:52;;;;;;;;;;;;;;;;;;4335725;33;19970;-83
2023/04/19 00:06:17;;;;;;;;;;;;;;;;;;4367282;32;20000;-82
2023/04/19 00:08:42;;;;;;;;;;;;;;;;;;4369217;32;20383;-82
2023/04/19 00:11:07;;;;;;;;;;;;;;;;;;4358914;32;19988;-84
2023/04/19 00:13:32;;;;;;;;;;;;;;;;;;4335124;33;19946;-82
2023/04/19 00:15:57;;;;;;;;;;;;;;;;;;4358034;32;19966;-83
2023/04/19 00:18:22;;;;;;;;;;;;;;;;;;4357518;32;20287;-83
2023/04/19 00:20:47;;;;;;;;;;;;;;;;;;4357050;32;19981;-83
2023/04/19 00:23:13;;;;;;;;;;;;;;;;;;4334625;33;19954;-83
2023/04/19 00:25:38;;;;;;;;;;;;;;;;;;4333524;33;19935;-84
2023/04/19 00:28:03;;;;;;;;;;;;;;;;;;4333583;33;19943;-84
2023/04/19 00:30:28;;;;;;;;;;;;;;;;;;4358308;32;19935;-83
2023/04/19 00:32:54;;;;;;;;;;;;;;;;;;4340373;33;19939;-83
2023/04/19 00:35:19;;;;;;;;;;;;;;;;;;4341193;33;19931;-83
2023/04/19 00:37:44;;;;;;;;;;;;;;;;;;4361524;32;19946;-83
2023/04/19 00:40:09;;;;;;;;;;;;;;;;;;4357372;32;19940;-84
2023/04/19 00:42:34;;;;;;;;;;;;;;;;;;4356754;32;20336;-84
2023/04/19 00:45:00;;;;;;;;;;;;;;;;;;4333525;33;19939;-83
2023/04/19 00:47:25;;;;;;;;;;;;;;;;;;4359693;32;19931;-82
2023/04/19 00:49:50;;;;;;;;;;;;;;;;;;4363288;32;20273;-83
2023/04/19 00:52:15;;;;;;;;;;;;;;;;;;4358047;32;19939;-83
2023/04/19 00:54:40;;;;;;;;;;;;;;;;;;4361609;32;19943;-83
2023/04/19 00:57:05;;;;;;;;;;;;;;;;;;4373609;32;19930;-84
2023/04/19 00:59:30;;;;;;;;;;;;;;;;;;4337124;33;19962;-83
2023/04/19 01:01:55;;;;;;;;;;;;;;;;;;4356589;32;19969;-83
2023/04/19 01:04:21;;;;;;;;;;;;;;;;;;4335004;33;19939;-83
2023/04/19 01:06:46;;;;;;;;;;;;;;;;;;4356589;32;20100;-83
2023/04/19 01:09:11;;;;;;;;;;;;;;;;;;4332787;33;20312;-83
2023/04/19 01:11:37;;;;;;;;;;;;;;;;;;4332763;33;19947;-82
2023/04/19 01:14:02;;;;;;;;;;;;;;;;;;4336899;33;19939;-83
2023/04/19 01:16:27;;;;;;;;;;;;;;;;;;4357646;32;19967;-83
2023/04/19 01:18:52;;;;;;;;;;;;;;;;;;4361976;32;19999;-83
2023/04/19 01:21:17;;;;;;;;;;;;;;;;;;4346535;33;19955;-82
2023/04/19 01:23:42;;;;;;;;;;;;;;;;;;4369754;32;20359;-83
2023/04/19 01:26:07;;;;;;;;;;;;;;;;;;4361664;32;20317;-83
2023/04/19 01:28:32;;;;;;;;;;;;;;;;;;4358817;32;19950;-83
2023/04/19 01:30:57;;;;;;;;;;;;;;;;;;4333619;33;20339;-83
2023/04/19 01:33:22;;;;;;;;;;;;;;;;;;4334173;33;19938;-83
2023/04/19 01:35:48;;;;;;;;;;;;;;;;;;4356684;32;20360;-83
2023/04/19 01:38:13;;;;;;;;;;;;;;;;;;4334059;33;19950;-83
2023/04/19 01:40:38;;;;;;;;;;;;;;;;;;4333492;33;19939;-84
2023/04/19 01:43:03;;;;;;;;;;;;;;;;;;4358831;32;19957;-82
2023/04/19 01:45:28;;;;;;;;;;;;;;;;;;4359009;32;19946;-84
2023/04/19 01:47:54;;;;;;;;;;;;;;;;;;4362454;32;19938;-83
2023/04/19 01:50:19;;;;;;;;;;;;;;;;;;4339073;33;19983;-84
2023/04/19 01:52:45;;;;;;;;;;;;;;;;;;4344575;33;19946;-83
2023/04/19 01:55:10;;;;;;;;;;;;;;;;;;4332804;33;19935;-83
2023/04/19 01:57:35;;;;;;;;;;;;;;;;;;4344120;33;19946;-83
2023/04/19 02:00:00;;;;;;;;;;;;;;;;;;4344310;33;19939;-84
2023/04/19 02:02:25;;;;;;;;;;;;;;;;;;4356696;33;19954;-83
2023/04/19 02:04:50;;;;;;;;;;;;;;;;;;4345872;33;19939;-84
2023/04/19 02:07:15;;;;;;;;;;;;;;;;;;4344093;33;19939;-83
2023/04/19 02:09:40;;;;;;;;;;;;;;;;;;4332612;33;19954;-83
2023/04/19 02:12:05;;;;;;;;;;;;;;;;;;4344229;33;19939;-84
2023/04/19 02:14:31;;;;;;;;;;;;;;;;;;4333451;33;19999;-83
2023/04/19 02:16:56;;;;;;;;;;;;;;;;;;4345273;33;19935;-83
2023/04/19 02:19:21;;;;;;;;;;;;;;;;;;4343846;33;19991;-84
2023/04/19 02:21:46;;;;;;;;;;;;;;;;;;4343938;33;19939;-84
2023/04/19 02:24:11;;;;;;;;;;;;;;;;;;4343744;33;19954;-84
2023/04/19 02:26:36;;;;;;;;;;;;;;;;;;4333192;33;20029;-83
2023/04/19 02:29:01;;;;;;;;;;;;;;;;;;4343684;33;20341;-82
2023/04/19 02:31:27;;;;;;;;;;;;;;;;;;4343639;33;19970;-83
2023/04/19 02:33:52;;;;;;;;;;;;;;;;;;4332279;33;20300;-83
2023/04/19 02:36:17;;;;;;;;;;;;;;;;;;4332204;33;19984;-83
2023/04/19 02:38:42;;;;;;;;;;;;;;;;;;4332816;33;20302;-84
2023/04/19 02:41:07;;;;;;;;;;;;;;;;;;4331634;33;20356;-84
2023/04/19 02:43:32;;;;;;;;;;;;;;;;;;4332179;33;19978;-83
2023/04/19 02:45:57;;;;;;;;;;;;;;;;;;4343035;33;19978;-83
2023/04/19 02:48:22;;;;;;;;;;;;;;;;;;4332690;33;20340;-84
2023/04/19 02:50:47;;;;;;;;;;;;;;;;;;4345090;33;19939;-84
2023/04/19 02:53:13;;;;;;;;;;;;;;;;;;4357489;32;19973;-83
2023/04/19 02:55:38;;;;;;;;;;;;;;;;;;4355937;32;20034;-84
2023/04/19 02:58:03;;;;;;;;;;;;;;;;;;4331773;33;19953;-84
2023/04/19 03:00:28;;;;;;;;;;;;;;;;;;4332740;33;20010;-83
2023/04/19 03:02:54;;;;;;;;;;;;;;;;;;4348147;33;19924;-83
2023/04/19 03:05:19;;;;;;;;;;;;;;;;;;4370358;32;19961;-82
2023/04/19 03:07:45;;;;;;;;;;;;;;;;;;4343992;33;19939;-83
2023/04/19 03:10:10;;;;;;;;;;;;;;;;;;4371940;32;19925;-83
2023/04/19 03:12:35;;;;;;;;;;;;;;;;;;4371410;32;19954;-85
2023/04/19 03:15:00;;;;;;;;;;;;;;;;;;4368118;32;19938;-83
2023/04/19 03:17:25;;;;;;;;;;;;;;;;;;4339685;33;19973;-84
2023/04/19 03:19:51;;;;;;;;;;;;;;;;;;4356067;32;19948;-84
2023/04/19 03:22:16;;;;;;;;;;;;;;;;;;4357129;32;19931;-84
2023/04/19 03:24:41;;;;;;;;;;;;;;;;;;4333220;33;19947;-84
2023/04/19 03:27:06;;;;;;;;;;;;;;;;;;4360308;32;20281;-83
2023/04/19 03:29:31;;;;;;;;;;;;;;;;;;4340281;33;19934;-84
2023/04/19 03:31:56;;;;;;;;;;;;;;;;;;4364030;32;19935;-82
2023/04/19 03:34:22;;;;;;;;;;;;;;;;;;4363176;32;19939;-83
2023/04/19 03:36:47;;;;;;;;;;;;;;;;;;4368461;32;19965;-83
2023/04/19 03:39:12;;;;;;;;;;;;;;;;;;4337083;33;19936;-84
2023/04/19 03:41:37;;;;;;;;;;;;;;;;;;4334369;33;19966;-84
2023/04/19 03:44:02;;;;;;;;;;;;;;;;;;4361037;32;19950;-82
2023/04/19 03:46:30;;;;;;;;;;;;;;;;;;4335620;33;20005;-83
2023/04/19 03:48:55;;;;;;;;;;;;;;;;;;4358799;32;20000;-83
2023/04/19 03:51:20;;;;;;;;;;;;;;;;;;4328052;33;19939;-83
2023/04/19 03:53:45;;;;;;;;;;;;;;;;;;4318975;33;19961;-83
2023/04/19 03:56:10;;;;;;;;;;;;;;;;;;4318631;33;19947;-83
2023/04/19 03:58:36;;;;;;;;;;;;;;;;;;4320114;33;19936;-83
2023/04/19 04:01:01;;;;;;;;;;;;;;;;;;4326442;33;19931;-83
2023/04/19 04:03:26;;;;;;;;;;;;;;;;;;4330299;33;19985;-82
2023/04/19 04:05:51;;;;;;;;;;;;;;;;;;4319372;33;20359;-83
2023/04/19 04:08:16;;;;;;;;;;;;;;;;;;4326992;33;19943;-82
2023/04/19 04:10:42;;;;;;;;;;;;;;;;;;4326323;33;19967;-84
2023/04/19 04:13:07;;;;;;;;;;;;;;;;;;4322531;33;20230;-83
2023/04/19 04:15:32;;;;;;;;;;;;;;;;;;4321525;33;19935;-83
2023/04/19 04:17:57;;;;;;;;;;;;;;;;;;4321533;33;19935;-83
2023/04/19 04:20:22;;;;;;;;;;;;;;;;;;4320202;33;20356;-83
2023/04/19 04:22:47;;;;;;;;;;;;;;;;;;4320431;33;20317;-83
2023/04/19 04:25:12;;;;;;;;;;;;;;;;;;4319604;33;19939;-84
2023/04/19 04:27:38;;;;;;;;;;;;;;;;;;4319248;33;19971;-84
2023/04/19 04:30:03;;;;;;;;;;;;;;;;;;4320317;33;19931;-83
2023/04/19 04:32:28;;;;;;;;;;;;;;;;;;4320083;33;19946;-82
2023/04/19 04:34:53;;;;;;;;;;;;;;;;;;4318657;33;19970;-80
2023/04/19 04:37:19;;;;;;;;;;;;;;;;;;4319494;33;19986;-83
2023/04/19 04:39:44;;;;;;;;;;;;;;;;;;4318489;33;20288;-83
2023/04/19 04:42:09;;;;;;;;;;;;;;;;;;4319925;33;19944;-82
2023/04/19 04:44:35;;;;;;;;;;;;;;;;;;4320370;33;19940;-82
2023/04/19 04:47:00;;;;;;;;;;;;;;;;;;4322336;33;20328;-83
2023/04/19 04:49:25;;;;;;;;;;;;;;;;;;4323597;33;20033;-83
2023/04/19 04:51:50;;;;;;;;;;;;;;;;;;4331928;33;20367;-83
2023/04/19 04:54:15;;;;;;;;;;;;;;;;;;4352440;33;19990;-82
2023/04/19 04:56:40;;;;;;;;;;;;;;;;;;4347097;33;19982;-83
2023/04/19 04:59:06;;;;;;;;;;;;;;;;;;4345958;33;19953;-83
2023/04/19 05:01:31;;;;;;;;;;;;;;;;;;4334132;33;20313;-82
2023/04/19 05:03:57;;;;;;;;;;;;;;;;;;4333735;33;19996;-83
2023/04/19 05:06:22;;;;;;;;;;;;;;;;;;4344509;33;19947;-80
2023/04/19 05:08:47;;;;;;;;;;;;;;;;;;4357455;33;19928;-82
2023/04/19 05:11:12;;;;;;;;;;;;;;;;;;4344239;33;19942;-82
2023/04/19 05:13:37;;;;;;;;;;;;;;;;;;4336117;33;19982;-84
2023/04/19 05:16:02;;;;;;;;;;;;;;;;;;4346133;33;20304;-83
2023/04/19 05:18:27;;;;;;;;;;;;;;;;;;4334724;33;20022;-79
2023/04/19 05:20:52;;;;;;;;;;;;;;;;;;4333258;33;19954;-81
2023/04/19 05:23:17;;;;;;;;;;;;;;;;;;4333878;33;19971;-81
2023/04/19 05:25:42;;;;;;;;;;;;;;;;;;4338058;33;20298;-81
2023/04/19 05:28:08;;;;;;;;;;;;;;;;;;4340481;33;20016;-80
2023/04/19 05:30:33;;;;;;;;;;;;;;;;;;4336235;33;19935;-81
2023/04/19 05:32:58;;;;;;;;;;;;;;;;;;4333180;33;20027;-81
2023/04/19 05:35:23;;;;;;;;;;;;;;;;;;4344218;33;19942;-81
2023/04/19 05:37:49;;;;;;;;;;;;;;;;;;4333825;33;20319;-81
2023/04/19 05:40:14;;;;;;;;;;;;;;;;;;4333596;33;19953;-81
2023/04/19 05:42:39;;;;;;;;;;;;;;;;;;4333231;33;20316;-80
2023/04/19 05:45:05;;;;;;;;;;;;;;;;;;4344751;33;19939;-81
2023/04/19 05:47:30;;;;;;;;;;;;;;;;;;4343190;32;19931;-81
2023/04/19 05:49:55;;;;;;;;;;;;;;;;;;4332418;33;19950;-81
2023/04/19 05:52:20;;;;;;;;;;;;;;;;;;4332331;33;19990;-81
2023/04/19 05:54:45;;;;;;;;;;;;;;;;;;4332273;33;20304;-83
2023/04/19 05:57:11;;;;;;;;;;;;;;;;;;4343263;33;19939;-81
2023/04/19 05:59:36;;;;;;;;;;;;;;;;;;4332348;33;19950;-81
2023/04/19 06:02:01;;;;;;;;;;;;;;;;;;4333005;33;20343;-82
2023/04/19 06:04:26;;;;;;;;;;;;;;;;;;4343782;33;19931;-82
2023/04/19 06:06:52;;;;;;;;;;;;;;;;;;4332374;33;19939;-82
2023/04/19 06:09:17;;;;;;;;;;;;;;;;;;4333916;33;19980;-81
2023/04/19 06:11:42;;;;;;;;;;;;;;;;;;4344970;32;19939;-81
2023/04/19 06:14:07;;;;;;;;;;;;;;;;;;4335265;33;19970;-81
2023/04/19 06:16:32;;;;;;;;;;;;;;;;;;4351307;33;19950;-80
2023/04/19 06:18:57;;;;;;;;;;;;;;;;;;4348435;33;19977;-81
2023/04/19 06:21:23;;;;;;;;;;;;;;;;;;4349288;33;19965;-80
2023/04/19 06:23:48;;;;;;;;;;;;;;;;;;4340629;33;19978;-81
2023/04/19 06:26:13;;;;;;;;;;;;;;;;;;4348772;33;19950;-82
2023/04/19 06:28:38;;;;;;;;;;;;;;;;;;4344271;33;19970;-82
2023/04/19 06:31:03;;;;;;;;;;;;;;;;;;4345702;33;19939;-81
2023/04/19 06:33:28;;;;;;;;;;;;;;;;;;4334648;33;19950;-81
2023/04/19 06:35:53;;;;;;;;;;;;;;;;;;4332052;33;19986;-81
2023/04/19 06:38:19;;;;;;;;;;;;;;;;;;4332123;33;19944;-81
2023/04/19 06:40:44;;;;;;;;;;;;;;;;;;4332865;33;20332;-81
2023/04/19 06:43:09;;;;;;;;;;;;;;;;;;4332151;33;19949;-80
2023/04/19 06:45:35;;;;;;;;;;;;;;;;;;4330581;33;19931;-80
2023/04/19 06:48:00;;;;;;;;;;;;;;;;;;4330659;33;19935;-80
2023/04/19 06:50:25;;;;;;;;;;;;;;;;;;4331135;33;19943;-82
2023/04/19 06:52:51;;;;;;;;;;;;;;;;;;4332778;33;19943;-80
2023/04/19 06:55:16;;;;;;;;;;;;;;;;;;4330261;33;19970;-80
2023/04/19 06:57:42;;;;;;;;;;;;;;;;;;4335828;33;19939;-80
2023/04/19 07:00:07;;;;;;;;;;;;;;;;;;4333084;33;19931;-80
2023/04/19 07:02:32;;;;;;;;;;;;;;;;;;4336440;33;20002;-81
2023/04/19 07:04:57;;;;;;;;;;;;;;;;;;4337338;33;19961;-81
2023/04/19 07:07:22;;;;;;;;;;;;;;;;;;4334936;33;19982;-81
2023/04/19 07:09:47;;;;;;;;;;;;;;;;;;4335196;33;19971;-81
2023/04/19 07:12:12;;;;;;;;;;;;;;;;;;4335614;33;19936;-81
2023/04/19 07:14:38;;;;;;;;;;;;;;;;;;4346563;33;19963;-81
2023/04/19 07:17:03;;;;;;;;;;;;;;;;;;4344691;33;19953;-80
2023/04/19 07:19:28;;;;;;;;;;;;;;;;;;4336691;33;19958;-80
2023/04/19 07:21:53;;;;;;;;;;;;;;;;;;4333256;33;19978;-81
2023/04/19 07:24:18;;;;;;;;;;;;;;;;;;4334098;33;20000;-80
2023/04/19 07:26:43;;;;;;;;;;;;;;;;;;4333934;33;20014;-81
2023/04/19 07:29:08;;;;;;;;;;;;;;;;;;4332854;33;20304;-81
2023/04/19 07:31:33;;;;;;;;;;;;;;;;;;4332890;33;19978;-81
2023/04/19 07:33:58;;;;;;;;;;;;;;;;;;4334222;33;20312;-81
2023/04/19 07:36:24;;;;;;;;;;;;;;;;;;4335855;33;19935;-82
2023/04/19 07:38:49;;;;;;;;;;;;;;;;;;4333862;33;19994;-81
2023/04/19 07:41:14;;;;;;;;;;;;;;;;;;4334912;33;19935;-81
2023/04/19 07:43:40;;;;;;;;;;;;;;;;;;4336903;33;20027;-80
2023/04/19 07:46:05;;;;;;;;;;;;;;;;;;4338998;33;19954;-80
2023/04/19 07:48:30;;;;;;;;;;;;;;;;;;4340149;33;20000;-81
2023/04/19 07:50:55;;;;;;;;;;;;;;;;;;4345560;33;19942;-82
2023/04/19 07:53:20;;;;;;;;;;;;;;;;;;4339802;33;19947;-81
2023/04/19 07:55:45;;;;;;;;;;;;;;;;;;4339035;33;19958;-79
2023/04/19 07:58:10;;;;;;;;;;;;;;;;;;4336152;33;19939;-80
2023/04/19 08:00:36;;;;;;;;;;;;;;;;;;4334957;33;19935;-79
2023/04/19 08:03:02;;;;;;;;;;;;;;;;;;4334729;33;19998;-80
2023/04/19 08:05:27;;;;;;;;;;;;;;;;;;4336090;33;20027;-79
2023/04/19 08:07:52;;;;;;;;;;;;;;;;;;4335601;33;19935;-80
2023/04/19 08:10:17;;;;;;;;;;;;;;;;;;4334819;33;19971;-80
2023/04/19 08:12:43;;;;;;;;;;;;;;;;;;4331817;33;20325;-81
2023/04/19 08:15:08;;;;;;;;;;;;;;;;;;4335273;33;20355;-81
2023/04/19 08:17:33;;;;;;;;;;;;;;;;;;4333557;33;19996;-80
2023/04/19 08:19:58;;;;;;;;;;;;;;;;;;4333919;33;19966;-80
2023/04/19 08:22:23;;;;;;;;;;;;;;;;;;4331920;33;19950;-81
2023/04/19 08:24:48;;;;;;;;;;;;;;;;;;4333515;33;20010;-80
2023/04/19 08:27:13;;;;;;;;;;;;;;;;;;4333504;33;20001;-81
2023/04/19 08:29:39;;;;;;;;;;;;;;;;;;4334597;33;19939;-81
2023/04/19 08:32:04;;;;;;;;;;;;;;;;;;4333028;33;19931;-81
2023/04/19 08:34:30;;;;;;;;;;;;;;;;;;4331863;33;19943;-81
2023/04/19 08:36:55;;;;;;;;;;;;;;;;;;4332071;33;19935;-81
2023/04/19 08:39:20;;;;;;;;;;;;;;;;;;4332013;33;19999;-81
2023/04/19 08:41:45;;;;;;;;;;;;;;;;;;4333605;33;19939;-80
2023/04/19 08:44:10;;;;;;;;;;;;;;;;;;4333403;33;19935;-81
2023/04/19 08:46:35;;;;;;;;;;;;;;;;;;4334912;33;19972;-81
2023/04/19 08:49:01;;;;;;;;;;;;;;;;;;4333096;33;20300;-81
2023/04/19 08:51:26;;;;;;;;;;;;;;;;;;4337935;33;19950;-80
2023/04/19 08:53:51;;;;;;;;;;;;;;;;;;4345502;33;19946;-80
2023/04/19 08:56:16;;;;;;;;;;;;;;;;;;4345486;33;19928;-81
2023/04/19 08:58:41;;;;;;;;;;;;;;;;;;4345278;33;19939;-81
2023/04/19 09:01:07;;;;;;;;;;;;;;;;;;4345294;33;19931;-79
2023/04/19 09:03:32;;;;;;;;;;;;;;;;;;4341431;33;19986;-80
2023/04/19 09:05:57;;;;;;;;;;;;;;;;;;4342634;33;19971;-80
2023/04/19 09:08:22;;;;;;;;;;;;;;;;;;4359298;32;19950;-81
2023/04/19 09:10:47;;;;;;;;;;;;;;;;;;4352779;33;19997;-80
2023/04/19 09:13:12;;;;;;;;;;;;;;;;;;4343082;33;19958;-80
2023/04/19 09:15:37;;;;;;;;;;;;;;;;;;4343308;33;19939;-80
2023/04/19 09:18:03;;;;;;;;;;;;;;;;;;4357489;32;19940;-80
2023/04/19 09:20:28;;;;;;;;;;;;;;;;;;4347657;33;19985;-80
2023/04/19 09:22:53;;;;;;;;;;;;;;;;;;4352448;33;19939;-80
2023/04/19 09:25:18;;;;;;;;;;;;;;;;;;4339383;33;20002;-82
2023/04/19 09:27:43;;;;;;;;;;;;;;;;;;4342256;33;19950;-81
2023/04/19 09:30:08;;;;;;;;;;;;;;;;;;4344814;33;19954;-81
2023/04/19 09:32:33;;;;;;;;;;;;;;;;;;4338574;33;19951;-83
2023/04/19 09:34:59;;;;;;;;;;;;;;;;;;4357216;32;19970;-81
2023/04/19 09:37:24;;;;;;;;;;;;;;;;;;4359236;32;19945;-79
2023/04/19 09:39:49;;;;;;;;;;;;;;;;;;4357796;32;20030;-81
2023/04/19 09:42:14;;;;;;;;;;;;;;;;;;4357611;32;19946;-80
2023/04/19 09:44:39;;;;;;;;;;;;;;;;;;4335248;33;19935;-81
2023/04/19 09:47:05;;;;;;;;;;;;;;;;;;4336100;33;19934;-81
2023/04/19 09:49:30;;;;;;;;;;;;;;;;;;4333137;33;20284;-83
2023/04/19 09:51:55;;;;;;;;;;;;;;;;;;4342286;33;19939;-80
2023/04/19 09:54:20;;;;;;;;;;;;;;;;;;4347354;33;19943;-82
2023/04/19 09:56:45;;;;;;;;;;;;;;;;;;4348699;33;20321;-81
2023/04/19 09:59:10;;;;;;;;;;;;;;;;;;4348094;33;19946;-80
2023/04/19 10:01:35;;;;;;;;;;;;;;;;;;4348372;33;19993;-81
2023/04/19 10:04:01;;;;;;;;;;;;;;;;;;4348781;33;19946;-81
2023/04/19 10:06:26;;;;;;;;;;;;;;;;;;4345481;33;19938;-81
2023/04/19 10:08:51;;;;;;;;;;;;;;;;;;4347340;33;19935;-80
2023/04/19 10:11:16;;;;;;;;;;;;;;;;;;4352395;33;19934;-80
2023/04/19 10:13:41;;;;;;;;;;;;;;;;;;4350992;33;20033;-82
2023/04/19 10:16:06;;;;;;;;;;;;;;;;;;4347006;33;20279;-81
2023/04/19 10:18:31;;;;;;;;;;;;;;;;;;4348200;33;19943;-79
2023/04/19 10:20:56;;;;;;;;;;;;;;;;;;4346773;33;19950;-79
2023/04/19 10:23:21;;;;;;;;;;;;;;;;;;4346850;33;19946;-80
2023/04/19 10:25:47;;;;;;;;;;;;;;;;;;4347507;33;20021;-80
2023/04/19 10:28:12;;;;;;;;;;;;;;;;;;4346111;33;19950;-80
2023/04/19 10:30:37;;;;;;;;;;;;;;;;;;4345867;33;19938;-80
2023/04/19 10:33:03;;;;;;;;;;;;;;;;;;4345245;33;19994;-80
2023/04/19 10:35:28;;;;;;;;;;;;;;;;;;4346342;33;19974;-81
2023/04/19 10:37:53;;;;;;;;;;;;;;;;;;4348691;33;19938;-81
2023/04/19 10:40:18;;;;;;;;;;;;;;;;;;4347962;33;19985;-80
2023/04/19 10:42:43;;;;;;;;;;;;;;;;;;4347173;33;20276;-79
2023/04/19 10:45:09;;;;;;;;;;;;;;;;;;4345050;33;20367;-80
2023/04/19 10:47:34;;;;;;;;;;;;;;;;;;4348683;33;19934;-80
2023/04/19 10:49:59;;;;;;;;;;;;;;;;;;4347715;33;19973;-81
2023/04/19 10:52:24;;;;;;;;;;;;;;;;;;4350262;33;20038;-81
2023/04/19 10:54:49;;;;;;;;;;;;;;;;;;4351504;33;19947;-79
2023/04/19 10:57:14;;;;;;;;;;;;;;;;;;4349787;33;19935;-80
2023/04/19 10:59:42;;;;;;;;;;;;;;;;;;4346744;33;19961;-81
2023/04/19 11:02:07;;;;;;;;;;;;;;;;;;4344870;33;20021;-80
2023/04/19 11:04:32;;;;;;;;;;;;;;;;;;4346307;33;19943;-80
2023/04/19 11:07:00;;;;;;;;;;;;;;;;;;4346049;33;20366;-81
2023/04/19 11:09:25;;;;;;;;;;;;;;;;;;4344922;33;20259;-81
2023/04/19 11:11:50;;;;;;;;;;;;;;;;;;4346974;33;20245;-81
2023/04/19 11:14:15;;;;;;;;;;;;;;;;;;4348888;33;20009;-80
2023/04/19 11:16:40;;;;;;;;;;;;;;;;;;4346985;33;20316;-80
2023/04/19 11:19:06;;;;;;;;;;;;;;;;;;4346686;33;19973;-80
2023/04/19 11:21:32;;;;;;;;;;;;;;;;;;4348006;33;19935;-80
2023/04/19 11:23:57;;;;;;;;;;;;;;;;;;4352766;33;19943;-81
2023/04/19 11:26:22;;;;;;;;;;;;;;;;;;4353821;33;19948;-80
2023/04/19 11:28:47;;;;;;;;;;;;;;;;;;4347563;33;19992;-80
2023/04/19 11:31:12;;;;;;;;;;;;;;;;;;4346266;33;19939;-80
2023/04/19 11:33:37;;;;;;;;;;;;;;;;;;4346343;33;19949;-80
2023/04/19 11:36:02;;;;;;;;;;;;;;;;;;4345540;33;19954;-81
2023/04/19 11:38:27;;;;;;;;;;;;;;;;;;4346266;33;19950;-80
2023/04/19 11:40:52;;;;;;;;;;;;;;;;;;4345372;33;19939;-80
2023/04/19 11:43:18;;;;;;;;;;;;;;;;;;4347243;33;19963;-79
2023/04/19 11:45:43;;;;;;;;;;;;;;;;;;4348626;33;19943;-81
2023/04/19 11:48:08;;;;;;;;;;;;;;;;;;4347672;33;19938;-80
2023/04/19 11:50:33;;;;;;;;;;;;;;;;;;4351685;33;20272;-80
2023/04/19 11:52:58;;;;;;;;;;;;;;;;;;4351318;32;20316;-80
2023/04/19 11:55:23;;;;;;;;;;;;;;;;;;4357566;33;19950;-79
2023/04/19 11:57:48;;;;;;;;;;;;;;;;;;4360091;33;20004;-80
2023/04/19 12:00:13;;;;;;;;;;;;;;;;;;4354378;33;19939;-79
2023/04/19 12:02:39;;;;;;;;;;;;;;;;;;4352647;33;19942;-80
2023/04/19 12:05:05;;;;;;;;;;;;;;;;;;4349792;33;19986;-81
2023/04/19 12:07:30;;;;;;;;;;;;;;;;;;4349000;33;19954;-82
2023/04/19 12:09:55;;;;;;;;;;;;;;;;;;4348905;33;19974;-79
2023/04/19 12:12:20;;;;;;;;;;;;;;;;;;4350001;33;19934;-81
2023/04/19 12:14:45;;;;;;;;;;;;;;;;;;4346872;33;20002;-80
2023/04/19 12:17:10;;;;;;;;;;;;;;;;;;4350068;32;19949;-80
2023/04/19 12:19:36;;;;;;;;;;;;;;;;;;4350470;33;19953;-79
2023/04/19 12:22:01;;;;;;;;;;;;;;;;;;4346903;32;20324;-80
2023/04/19 12:24:26;;;;;;;;;;;;;;;;;;4349697;33;19939;-80
2023/04/19 12:26:51;;;;;;;;;;;;;;;;;;4347602;33;19973;-79
2023/04/19 12:29:16;;;;;;;;;;;;;;;;;;4348265;33;20336;-80
2023/04/19 12:31:41;;;;;;;;;;;;;;;;;;4348437;33;19954;-79
2023/04/19 12:34:06;;;;;;;;;;;;;;;;;;4347123;33;19947;-80
2023/04/19 12:36:32;;;;;;;;;;;;;;;;;;4350106;33;19935;-79
2023/04/19 12:38:57;;;;;;;;;;;;;;;;;;4348063;33;19938;-79
2023/04/19 12:41:22;;;;;;;;;;;;;;;;;;4347650;33;19939;-80
2023/04/19 12:43:47;;;;;;;;;;;;;;;;;;4346898;33;19978;-81
2023/04/19 12:46:12;;;;;;;;;;;;;;;;;;4334283;33;19972;-81
2023/04/19 12:48:37;;;;;;;;;;;;;;;;;;4347290;33;20389;-80
2023/04/19 12:51:03;;;;;;;;;;;;;;;;;;4350598;33;19935;-80
2023/04/19 12:53:28;;;;;;;;;;;;;;;;;;4351809;32;19977;-80
2023/04/19 12:55:53;;;;;;;;;;;;;;;;;;4353097;33;19943;-77
2023/04/19 12:58:20;;;;;;;;;;;;;;;;;;4347202;33;19954;-78
2023/04/19 13:00:45;;;;;;;;;;;;;;;;;;4347472;33;19935;-79
2023/04/19 13:03:11;;;;;;;;;;;;;;;;;;4346483;32;19969;-80
2023/04/19 13:05:36;;;;;;;;;;;;;;;;;;4347647;33;19934;-80
2023/04/19 13:08:01;;;;;;;;;;;;;;;;;;4345885;33;20005;-78
2023/04/19 13:10:26;;;;;;;;;;;;;;;;;;4347376;33;19963;-79
2023/04/19 13:12:51;;;;;;;;;;;;;;;;;;4347358;33;19942;-79
2023/04/19 13:15:16;;;;;;;;;;;;;;;;;;4348075;33;19943;-80
2023/04/19 13:17:41;;;;;;;;;;;;;;;;;;4351481;33;19935;-80
2023/04/19 13:20:07;;;;;;;;;;;;;;;;;;4348735;33;19942;-79
2023/04/19 13:22:32;;;;;;;;;;;;;;;;;;4350244;33;19939;-78
2023/04/19 13:24:57;;;;;;;;;;;;;;;;;;4351588;33;19982;-79
2023/04/19 13:27:22;;;;;;;;;;;;;;;;;;4355320;33;19931;-78
2023/04/19 13:29:47;;;;;;;;;;;;;;;;;;4356295;33;19939;-79
2023/04/19 13:32:12;;;;;;;;;;;;;;;;;;4354699;33;19954;-78
2023/04/19 13:34:38;;;;;;;;;;;;;;;;;;4352280;32;19997;-80
2023/04/19 13:37:04;;;;;;;;;;;;;;;;;;4350867;33;19981;-78
2023/04/19 13:39:29;;;;;;;;;;;;;;;;;;4349917;33;20047;-79
2023/04/19 13:41:54;;;;;;;;;;;;;;;;;;4349462;33;19968;-79
2023/04/19 13:44:19;;;;;;;;;;;;;;;;;;4350364;33;19973;-80
2023/04/19 13:46:44;;;;;;;;;;;;;;;;;;4352116;33;19978;-79
2023/04/19 13:49:10;;;;;;;;;;;;;;;;;;4351730;33;19949;-79
2023/04/19 13:51:35;;;;;;;;;;;;;;;;;;4351945;33;19939;-79
2023/04/19 13:54:00;;;;;;;;;;;;;;;;;;4349459;32;19980;-78
2023/04/19 13:56:25;;;;;;;;;;;;;;;;;;4352209;33;20268;-78
2023/04/19 13:58:50;;;;;;;;;;;;;;;;;;4352599;33;19969;-80
2023/04/19 14:01:15;;;;;;;;;;;;;;;;;;4349731;33;19943;-79
2023/04/19 14:03:40;;;;;;;;;;;;;;;;;;4347195;33;19939;-79
2023/04/19 14:06:05;;;;;;;;;;;;;;;;;;4350117;33;20354;-78
2023/04/19 14:08:31;;;;;;;;;;;;;;;;;;4345630;33;20045;-79
2023/04/19 14:10:56;;;;;;;;;;;;;;;;;;4345379;33;19994;-79
2023/04/19 14:13:21;;;;;;;;;;;;;;;;;;4346401;33;20248;-80
2023/04/19 14:15:46;;;;;;;;;;;;;;;;;;4346279;33;20302;-79
2023/04/19 14:18:11;;;;;;;;;;;;;;;;;;4346141;33;19994;-79
2023/04/19 14:20:36;;;;;;;;;;;;;;;;;;4348672;33;19946;-79
2023/04/19 14:23:02;;;;;;;;;;;;;;;;;;4347354;33;19970;-78
2023/04/19 14:25:27;;;;;;;;;;;;;;;;;;4346495;33;20279;-78
2023/04/19 14:27:52;;;;;;;;;;;;;;;;;;4347060;33;19973;-78
2023/04/19 14:30:18;;;;;;;;;;;;;;;;;;4346316;33;19935;-79
2023/04/19 14:32:43;;;;;;;;;;;;;;;;;;4345264;33;19950;-81
2023/04/19 14:35:10;;;;;;;;;;;;;;;;;;4348992;33;20102;-78
2023/04/19 14:37:35;;;;;;;;;;;;;;;;;;4347217;33;20324;-79
2023/04/19 14:40:00;;;;;;;;;;;;;;;;;;4345101;33;19939;-78
2023/04/19 14:42:25;;;;;;;;;;;;;;;;;;4346715;33;19939;-78
2023/04/19 14:44:50;;;;;;;;;;;;;;;;;;4344941;33;19970;-78
2023/04/19 14:47:15;;;;;;;;;;;;;;;;;;4346100;33;19950;-78
2023/04/19 14:49:40;;;;;;;;;;;;;;;;;;4346297;33;19943;-77
2023/04/19 14:52:05;;;;;;;;;;;;;;;;;;4346215;33;19978;-78
2023/04/19 14:54:31;;;;;;;;;;;;;;;;;;4346141;33;19943;-78
2023/04/19 14:56:56;;;;;;;;;;;;;;;;;;4345915;33;20292;-78
2023/04/19 14:59:21;;;;;;;;;;;;;;;;;;4347156;33;20297;-79
2023/04/19 15:01:46;;;;;;;;;;;;;;;;;;4346050;33;19969;-78
2023/04/19 15:04:11;;;;;;;;;;;;;;;;;;4344294;33;19949;-78
2023/04/19 15:06:36;;;;;;;;;;;;;;;;;;4344325;33;19943;-78
2023/04/19 15:09:01;;;;;;;;;;;;;;;;;;4346084;33;20084;-78
2023/04/19 15:11:26;;;;;;;;;;;;;;;;;;4345980;33;19965;-79
2023/04/19 15:13:52;;;;;;;;;;;;;;;;;;4345042;33;20328;-77
2023/04/19 15:16:17;;;;;;;;;;;;;;;;;;4348032;33;20351;-77
2023/04/19 15:18:42;;;;;;;;;;;;;;;;;;4345545;33;20428;-77
2023/04/19 15:21:07;;;;;;;;;;;;;;;;;;4345230;33;19947;-79
2023/04/19 15:23:32;;;;;;;;;;;;;;;;;;4348580;33;19934;-79
2023/04/19 15:25:58;;;;;;;;;;;;;;;;;;4349062;33;19934;-78
2023/04/19 15:28:23;;;;;;;;;;;;;;;;;;4353312;33;19935;-79
2023/04/19 15:30:48;;;;;;;;;;;;;;;;;;4357660;33;19978;-78
2023/04/19 15:33:13;;;;;;;;;;;;;;;;;;4354521;33;19938;-79
2023/04/19 15:35:38;;;;;;;;;;;;;;;;;;4349436;33;19935;-77
2023/04/19 15:38:03;;;;;;;;;;;;;;;;;;4350192;33;20052;-78
2023/04/19 15:40:28;;;;;;;;;;;;;;;;;;4350217;33;19970;-79
2023/04/19 15:42:54;;;;;;;;;;;;;;;;;;4347533;33;20010;-78
2023/04/19 15:45:19;;;;;;;;;;;;;;;;;;4348905;33;19988;-79
2023/04/19 15:47:44;;;;;;;;;;;;;;;;;;4350087;33;19943;-78
2023/04/19 15:50:10;;;;;;;;;;;;;;;;;;4350165;32;19966;-78
2023/04/19 15:52:35;;;;;;;;;;;;;;;;;;4348732;33;19935;-78
2023/04/19 15:55:00;;;;;;;;;;;;;;;;;;4348008;33;19942;-78
2023/04/19 15:57:25;;;;;;;;;;;;;;;;;;4348893;33;19968;-78
2023/04/19 15:59:50;;;;;;;;;;;;;;;;;;4349776;33;19986;-79
2023/04/19 16:02:15;;;;;;;;;;;;;;;;;;4348861;33;19954;-79
2023/04/19 16:04:41;;;;;;;;;;;;;;;;;;4348661;33;19952;-79
2023/04/19 16:07:06;;;;;;;;;;;;;;;;;;4349349;33;19951;-78
2023/04/19 16:09:31;;;;;;;;;;;;;;;;;;4347464;32;19977;-80
2023/04/19 16:11:56;;;;;;;;;;;;;;;;;;4347513;33;19939;-78
2023/04/19 16:14:21;;;;;;;;;;;;;;;;;;4347096;33;20267;-79
2023/04/19 16:16:46;;;;;;;;;;;;;;;;;;4348189;33;19994;-80
2023/04/19 16:19:11;;;;;;;;;;;;;;;;;;4349063;33;19950;-78
2023/04/19 16:21:37;;;;;;;;;;;;;;;;;;4348972;32;19939;-79
2023/04/19 16:24:02;;;;;;;;;;;;;;;;;;4352583;33;19958;-78
2023/04/19 16:26:27;;;;;;;;;;;;;;;;;;4352346;32;19939;-80
2023/04/19 16:28:52;;;;;;;;;;;;;;;;;;4355184;33;19943;-79
2023/04/19 16:31:17;;;;;;;;;;;;;;;;;;4357423;33;19973;-80